Time;durP1;ratioP1;P1;durP2;ratioP2;P2;SDS_P1;SDS_P2;PMS_P1;PMS_P2;Temp;Humidity;BMP_temperature;BMP_pressure;BME280_temperature;BME280_humidity;BME280_pressure;Samples;Min_cycle;Max_cycle;Signal;HPM_P1;HPM_P2
2023/10/29 00:01:37;;;;;;;13.23;12.83;;;13.10;99.90;;;;;;5033426;28;20227;-63
2023/10/29 00:04:04;;;;;;;13.53;13.03;;;13.10;99.90;;;;;;5034098;28;20236;-63
2023/10/29 00:06:31;;;;;;;13.63;13.17;;;13.10;99.90;;;;;;5042644;28;20208;-64
2023/10/29 00:08:58;;;;;;;13.53;13.03;;;13.10;99.90;;;;;;5047313;28;21004;-63
2023/10/29 00:11:26;;;;;;;13.85;13.35;;;13.10;99.90;;;;;;5047609;28;20232;-63
2023/10/29 00:13:53;;;;;;;13.93;13.43;;;13.10;99.90;;;;;;5048194;28;20319;-64
2023/10/29 00:16:20;;;;;;;14.00;13.50;;;13.10;99.90;;;;;;5039842;28;20231;-64
2023/10/29 00:18:46;;;;;;;12.63;12.23;;;13.10;99.90;;;;;;5034312;28;20223;-64
2023/10/29 00:21:13;;;;;;;12.60;12.20;;;13.10;99.90;;;;;;5035029;28;20682;-63
2023/10/29 00:23:40;;;;;;;14.03;13.53;;;13.10;99.90;;;;;;5033802;28;20319;-63
2023/10/29 00:26:07;;;;;;;12.30;11.83;;;13.20;99.90;;;;;;5033202;28;20216;-64
2023/10/29 00:28:35;;;;;;;13.37;12.87;;;13.20;99.90;;;;;;5033232;28;20255;-63
2023/10/29 00:31:01;;;;;;;12.90;12.50;;;13.20;99.90;;;;;;5033054;28;20205;-64
2023/10/29 00:33:28;;;;;;;13.13;12.73;;;13.20;99.90;;;;;;5033175;28;20572;-63
2023/10/29 00:35:55;;;;;;;13.30;12.80;;;13.20;99.90;;;;;;5032999;28;20217;-62
2023/10/29 00:38:21;;;;;;;13.40;12.90;;;13.20;99.90;;;;;;5033001;28;20632;-64
2023/10/29 00:40:48;;;;;;;13.23;12.73;;;13.20;99.90;;;;;;5032871;28;20231;-64
2023/10/29 00:43:15;;;;;;;14.40;13.90;;;13.20;99.90;;;;;;5032912;28;20255;-63
2023/10/29 00:45:44;;;;;;;13.93;13.43;;;13.20;99.90;;;;;;5032532;28;20208;-64
2023/10/29 00:48:11;;;;;;;13.97;13.47;;;13.10;99.90;;;;;;5032889;28;20620;-64
2023/10/29 00:50:39;;;;;;;14.73;14.17;;;13.10;99.90;;;;;;5032512;28;20215;-63
2023/10/29 00:53:05;;;;;;;14.07;13.57;;;13.10;99.90;;;;;;5032344;28;20243;-64
2023/10/29 00:55:33;;;;;;;13.70;13.20;;;13.10;99.90;;;;;;5032558;28;20694;-64
2023/10/29 00:57:59;;;;;;;13.27;12.87;;;13.00;99.90;;;;;;5032546;28;20209;-62
2023/10/29 01:00:26;;;;;;;12.90;12.50;;;13.10;99.90;;;;;;5032911;28;20228;-62
2023/10/29 01:02:54;;;;;;;13.10;12.60;;;13.10;99.90;;;;;;5032212;28;20264;-63
2023/10/29 01:05:21;;;;;;;13.13;12.63;;;13.10;99.90;;;;;;5031862;28;20251;-63
2023/10/29 01:07:48;;;;;;;13.73;13.27;;;13.00;99.90;;;;;;5032264;28;20208;-63
2023/10/29 01:10:16;;;;;;;13.70;13.20;;;13.10;99.90;;;;;;5032202;28;20212;-63
2023/10/29 01:12:45;;;;;;;12.67;12.27;;;13.10;99.90;;;;;;5032407;28;20224;-63
2023/10/29 01:15:11;;;;;;;13.37;12.87;;;13.10;99.90;;;;;;5032340;28;20316;-63
2023/10/29 01:17:38;;;;;;;13.40;13.00;;;13.00;99.90;;;;;;5032312;28;20217;-63
2023/10/29 01:20:07;;;;;;;13.70;13.20;;;13.00;99.90;;;;;;5031855;28;20220;-63
2023/10/29 01:22:34;;;;;;;12.80;12.40;;;13.00;99.90;;;;;;5031581;28;20671;-64
2023/10/29 01:25:02;;;;;;;13.33;12.93;;;13.00;99.90;;;;;;5032267;28;20288;-63
2023/10/29 01:27:29;;;;;;;13.00;12.60;;;13.00;99.90;;;;;;5032132;28;20217;-63
2023/10/29 01:29:56;;;;;;;13.37;12.87;;;13.00;99.90;;;;;;5031849;28;20208;-63
2023/10/29 01:32:23;;;;;;;12.90;12.50;;;13.00;99.90;;;;;;5031674;28;20231;-63
2023/10/29 01:34:50;;;;;;;13.20;12.73;;;13.00;99.90;;;;;;5031728;28;20232;-63
2023/10/29 01:37:18;;;;;;;13.40;12.97;;;13.00;99.90;;;;;;5031786;28;20721;-63
2023/10/29 01:39:44;;;;;;;13.20;12.80;;;13.00;99.90;;;;;;5031703;28;20296;-63
2023/10/29 01:42:11;;;;;;;14.00;13.50;;;13.00;99.90;;;;;;5031505;28;20226;-64
2023/10/29 01:44:38;;;;;;;14.30;13.80;;;13.00;99.90;;;;;;5031498;28;20232;-63
2023/10/29 01:47:05;;;;;;;14.10;13.60;;;13.10;99.90;;;;;;5031392;28;20212;-63
2023/10/29 01:49:33;;;;;;;13.80;13.30;;;13.10;99.90;;;;;;5031299;28;20597;-63
2023/10/29 01:52:00;;;;;;;14.60;14.10;;;13.10;99.90;;;;;;5031164;28;20290;-63
2023/10/29 01:54:28;;;;;;;14.33;13.83;;;13.10;99.90;;;;;;5031349;28;20237;-63
2023/10/29 01:56:55;;;;;;;14.87;14.37;;;13.10;99.90;;;;;;5031267;28;20240;-63
2023/10/29 01:59:21;;;;;;;14.77;14.27;;;13.10;99.90;;;;;;5031243;28;20205;-64
2023/10/29 02:01:48;;;;;;;15.70;15.20;;;13.10;99.90;;;;;;5031001;28;20228;-63
2023/10/29 02:04:15;;;;;;;15.27;14.77;;;13.20;99.90;;;;;;5031625;28;20247;-62
2023/10/29 02:06:41;;;;;;;14.53;14.03;;;13.20;99.90;;;;;;5031652;28;20251;-63
2023/10/29 02:09:09;;;;;;;14.60;14.10;;;13.20;99.90;;;;;;5031139;28;20221;-63
2023/10/29 02:11:38;;;;;;;15.23;14.73;;;13.20;99.90;;;;;;5030794;28;20613;-64
2023/10/29 02:14:05;;;;;;;15.70;15.20;;;13.20;99.90;;;;;;5031003;28;20260;-62
2023/10/29 02:16:32;;;;;;;15.17;14.67;;;13.20;99.90;;;;;;5030898;28;20220;-63
2023/10/29 02:18:58;;;;;;;15.43;14.83;;;13.30;99.90;;;;;;5030759;28;20686;-63
2023/10/29 02:21:25;;;;;;;14.37;13.87;;;13.30;99.90;;;;;;5030823;28;20209;-62
2023/10/29 02:23:54;;;;;;;13.87;13.37;;;13.30;99.90;;;;;;5031133;28;20312;-63
2023/10/29 02:26:21;;;;;;;14.40;13.90;;;13.30;99.90;;;;;;5034554;28;20209;-64
2023/10/29 02:28:48;;;;;;;13.80;13.30;;;13.30;99.90;;;;;;5036232;28;20216;-63
2023/10/29 02:31:17;;;;;;;14.13;13.63;;;13.30;99.90;;;;;;5037343;28;20216;-63
2023/10/29 02:33:44;;;;;;;14.37;13.87;;;13.40;99.90;;;;;;5031158;28;20260;-63
2023/10/29 02:36:11;;;;;;;13.40;12.90;;;13.40;99.90;;;;;;5030840;28;20216;-64
2023/10/29 02:38:38;;;;;;;14.13;13.63;;;13.40;99.90;;;;;;5030289;28;20414;-64
2023/10/29 02:41:06;;;;;;;14.20;13.60;;;13.40;99.90;;;;;;5030839;28;20263;-64
2023/10/29 02:43:33;;;;;;;14.23;13.73;;;13.40;99.90;;;;;;5030513;28;20237;-63
2023/10/29 02:46:00;;;;;;;14.00;13.50;;;13.40;99.90;;;;;;5031049;28;20212;-64
2023/10/29 02:48:27;;;;;;;14.00;13.50;;;13.40;99.90;;;;;;5032469;28;20219;-64
2023/10/29 02:50:54;;;;;;;13.70;13.20;;;13.50;99.90;;;;;;5034464;28;20236;-63
2023/10/29 02:53:21;;;;;;;13.83;13.33;;;13.40;99.90;;;;;;5028717;28;20232;-64
2023/10/29 02:55:47;;;;;;;12.97;12.57;;;13.40;99.90;;;;;;5031942;28;20205;-63
2023/10/29 02:58:15;;;;;;;13.40;12.90;;;13.40;99.90;;;;;;5030604;28;20231;-65
2023/10/29 03:00:42;;;;;;;13.73;13.23;;;13.30;99.90;;;;;;5033878;28;20208;-63
2023/10/29 03:03:09;;;;;;;13.83;13.33;;;13.40;99.90;;;;;;5035301;28;20234;-63
2023/10/29 03:05:35;;;;;;;14.10;13.60;;;13.40;99.90;;;;;;5033694;28;20676;-64
2023/10/29 03:08:03;;;;;;;14.17;13.67;;;13.40;99.90;;;;;;5034994;28;20216;-64
2023/10/29 03:10:32;;;;;;;13.20;12.70;;;13.40;99.90;;;;;;5031063;28;20205;-64
2023/10/29 03:12:58;;;;;;;14.10;13.60;;;13.40;99.90;;;;;;5030733;28;20228;-63
2023/10/29 03:15:27;;;;;;;14.07;13.57;;;13.40;99.90;;;;;;5033457;28;20216;-64
2023/10/29 03:17:53;;;;;;;13.97;13.47;;;13.40;99.90;;;;;;5030101;28;20208;-64
2023/10/29 03:20:21;;;;;;;13.90;13.40;;;13.40;99.90;;;;;;5030035;28;20243;-63
2023/10/29 03:22:48;;;;;;;14.23;13.67;;;13.40;99.90;;;;;;5030110;28;20233;-63
2023/10/29 03:25:14;;;;;;;13.87;13.37;;;13.40;99.90;;;;;;5030244;28;20205;-63
2023/10/29 03:27:41;;;;;;;13.50;13.07;;;13.40;99.90;;;;;;5029749;28;20216;-63
2023/10/29 03:30:09;;;;;;;13.67;13.17;;;13.40;99.90;;;;;;5029738;28;20208;-63
2023/10/29 03:32:37;;;;;;;13.77;13.27;;;13.40;99.90;;;;;;5029379;28;20243;-63
2023/10/29 03:35:04;;;;;;;13.77;13.30;;;13.40;99.90;;;;;;5030313;28;20211;-64
2023/10/29 03:37:30;;;;;;;13.00;12.60;;;13.40;99.90;;;;;;5030071;28;20216;-63
2023/10/29 03:39:57;;;;;;;13.37;12.97;;;13.40;99.90;;;;;;5029819;28;20880;-64
2023/10/29 03:42:24;;;;;;;14.50;14.00;;;13.40;99.90;;;;;;5029845;28;20209;-64
2023/10/29 03:44:51;;;;;;;13.93;13.43;;;13.30;99.90;;;;;;5030150;28;20779;-64
2023/10/29 03:47:17;;;;;;;13.67;13.17;;;13.30;99.90;;;;;;5030417;28;20216;-65
2023/10/29 03:49:45;;;;;;;13.80;13.30;;;13.40;99.90;;;;;;5029368;28;20215;-63
2023/10/29 03:52:12;;;;;;;13.87;13.30;;;13.30;99.90;;;;;;5027555;28;20216;-63
2023/10/29 03:54:38;;;;;;;13.23;12.83;;;13.30;99.90;;;;;;5030681;28;20228;-64
2023/10/29 03:57:05;;;;;;;13.77;13.27;;;13.30;99.90;;;;;;5030571;28;20212;-63
2023/10/29 03:59:32;;;;;;;13.83;13.33;;;13.30;99.90;;;;;;5026741;28;20259;-62
2023/10/29 04:01:59;;;;;;;14.13;13.60;;;13.20;99.90;;;;;;5035072;28;20692;-63
2023/10/29 04:04:25;;;;;;;13.77;13.27;;;13.20;99.90;;;;;;5038889;28;20234;-63
2023/10/29 04:06:53;;;;;;;14.00;13.50;;;13.20;99.90;;;;;;5034616;28;20231;-65
2023/10/29 04:09:20;;;;;;;14.20;13.70;;;13.20;99.90;;;;;;5033512;28;20216;-64
2023/10/29 04:11:47;;;;;;;14.47;13.97;;;13.10;99.90;;;;;;5030734;28;20876;-63
2023/10/29 04:14:14;;;;;;;14.70;14.20;;;13.10;99.90;;;;;;5030946;28;20236;-63
2023/10/29 04:16:40;;;;;;;14.57;14.03;;;13.10;99.90;;;;;;5030214;28;20221;-65
2023/10/29 04:19:07;;;;;;;14.30;13.77;;;13.10;99.90;;;;;;5030434;28;20213;-62
2023/10/29 04:21:34;;;;;;;14.70;14.20;;;13.10;99.90;;;;;;5030281;28;20205;-64
2023/10/29 04:24:02;;;;;;;15.00;14.50;;;13.20;99.90;;;;;;5030285;28;20324;-64
2023/10/29 04:26:28;;;;;;;14.37;13.87;;;13.20;99.90;;;;;;5030236;28;20209;-63
2023/10/29 04:28:55;;;;;;;14.30;13.80;;;13.10;99.90;;;;;;5036100;28;20204;-64
2023/10/29 04:31:22;;;;;;;14.33;13.83;;;13.10;99.90;;;;;;5031015;28;20209;-64
2023/10/29 04:33:49;;;;;;;14.37;13.87;;;13.10;99.90;;;;;;5036307;28;20240;-63
2023/10/29 04:36:19;;;;;;;14.50;14.00;;;13.10;99.90;;;;;;5045712;28;20587;-64
2023/10/29 04:38:46;;;;;;;14.87;14.37;;;13.10;99.90;;;;;;5043057;28;20209;-64
2023/10/29 04:41:14;;;;;;;14.63;14.13;;;13.00;99.90;;;;;;5048254;28;20319;-64
2023/10/29 04:43:42;;;;;;;14.30;13.80;;;13.10;99.90;;;;;;5047843;28;20235;-63
2023/10/29 04:46:10;;;;;;;14.50;14.00;;;13.10;99.90;;;;;;5040324;28;20213;-64
2023/10/29 04:48:37;;;;;;;14.30;13.80;;;13.00;99.90;;;;;;5034010;28;20266;-64
2023/10/29 04:51:06;;;;;;;14.60;14.10;;;12.90;99.90;;;;;;5033805;28;20212;-63
2023/10/29 04:53:33;;;;;;;14.40;13.90;;;12.90;99.90;;;;;;5033163;28;20238;-63
2023/10/29 04:55:59;;;;;;;14.67;14.17;;;12.80;99.90;;;;;;5033595;28;20212;-63
2023/10/29 04:58:27;;;;;;;14.93;14.43;;;12.90;99.90;;;;;;5033410;28;20212;-63
2023/10/29 05:00:56;;;;;;;14.40;13.90;;;12.90;99.90;;;;;;5033182;28;20727;-64
2023/10/29 05:03:23;;;;;;;14.50;14.00;;;12.80;99.90;;;;;;5032888;28;20735;-63
2023/10/29 05:05:49;;;;;;;14.00;13.50;;;12.90;99.90;;;;;;5033320;28;20278;-64
2023/10/29 05:08:16;;;;;;;14.27;13.77;;;12.90;99.90;;;;;;5033106;28;20286;-63
2023/10/29 05:10:43;;;;;;;14.60;14.10;;;12.90;99.90;;;;;;5032291;28;20213;-64
2023/10/29 05:13:10;;;;;;;14.50;14.00;;;12.90;99.90;;;;;;5032269;28;20241;-64
2023/10/29 05:15:38;;;;;;;14.30;13.80;;;12.90;99.90;;;;;;5033196;28;20231;-64
2023/10/29 05:18:05;;;;;;;14.77;14.27;;;12.90;99.90;;;;;;5033243;28;20219;-62
2023/10/29 05:20:32;;;;;;;14.87;14.37;;;13.00;99.90;;;;;;5033129;28;20220;-64
2023/10/29 05:22:59;;;;;;;15.33;14.83;;;13.00;99.90;;;;;;5032522;28;20636;-64
2023/10/29 05:25:25;;;;;;;15.07;14.57;;;13.00;99.90;;;;;;5032747;28;20217;-63
2023/10/29 05:27:52;;;;;;;14.90;14.30;;;13.10;99.90;;;;;;5032903;28;20213;-63
2023/10/29 05:30:19;;;;;;;14.93;14.43;;;13.10;99.90;;;;;;5032756;28;20205;-64
2023/10/29 05:32:47;;;;;;;14.80;14.30;;;13.10;99.90;;;;;;5032104;28;20217;-63
2023/10/29 05:35:14;;;;;;;15.87;15.37;;;13.10;99.90;;;;;;5032508;28;20220;-63
2023/10/29 05:37:41;;;;;;;14.13;13.63;;;13.10;99.90;;;;;;5032620;28;20213;-63
2023/10/29 05:40:09;;;;;;;14.53;14.03;;;13.00;99.90;;;;;;5032960;28;20216;-63
2023/10/29 05:42:36;;;;;;;14.00;13.50;;;13.00;99.90;;;;;;5032396;28;20248;-63
2023/10/29 05:45:03;;;;;;;14.80;14.20;;;12.90;99.90;;;;;;5032830;28;20205;-63
2023/10/29 05:47:30;;;;;;;13.87;13.37;;;13.00;99.90;;;;;;5032292;28;20217;-63
2023/10/29 05:49:58;;;;;;;14.57;14.07;;;12.90;99.90;;;;;;5032028;28;20219;-64
2023/10/29 05:52:24;;;;;;;14.80;14.30;;;12.90;99.90;;;;;;5032069;28;20672;-62
2023/10/29 05:54:51;;;;;;;14.10;13.60;;;12.90;99.90;;;;;;5032197;28;20707;-63
2023/10/29 05:57:18;;;;;;;13.47;13.07;;;12.90;99.90;;;;;;5032219;28;20209;-63
2023/10/29 05:59:45;;;;;;;14.07;13.57;;;12.90;99.90;;;;;;5032592;28;20220;-63
2023/10/29 06:02:11;;;;;;;13.90;13.40;;;12.90;99.90;;;;;;5031849;28;20224;-62
2023/10/29 06:04:38;;;;;;;14.20;13.70;;;12.90;99.90;;;;;;5031996;28;20315;-62
2023/10/29 06:07:06;;;;;;;14.07;13.57;;;12.90;99.90;;;;;;5032331;28;20220;-63
2023/10/29 06:09:33;;;;;;;13.03;12.63;;;12.90;99.90;;;;;;5032418;28;20216;-63
2023/10/29 06:12:00;;;;;;;13.30;12.90;;;12.90;99.90;;;;;;5042828;28;20208;-63
2023/10/29 06:14:26;;;;;;;14.10;13.60;;;12.90;99.90;;;;;;5048647;28;20233;-64
2023/10/29 06:16:56;;;;;;;13.70;13.20;;;13.00;99.90;;;;;;5049181;28;20226;-64
2023/10/29 06:19:23;;;;;;;14.60;14.10;;;13.00;99.90;;;;;;5048569;28;20212;-64
2023/10/29 06:21:49;;;;;;;14.03;13.53;;;13.00;99.90;;;;;;5035435;28;20223;-62
2023/10/29 06:24:17;;;;;;;14.23;13.73;;;13.00;99.90;;;;;;5031977;28;20224;-63
2023/10/29 06:26:44;;;;;;;14.97;14.47;;;13.00;99.90;;;;;;5031646;28;20686;-64
2023/10/29 06:29:11;;;;;;;15.23;14.73;;;13.00;99.90;;;;;;5031803;28;20212;-62
2023/10/29 06:31:38;;;;;;;14.40;13.90;;;13.10;99.90;;;;;;5031365;28;20239;-62
2023/10/29 06:34:04;;;;;;;14.97;14.47;;;13.10;99.90;;;;;;5031563;28;20228;-62
2023/10/29 06:36:31;;;;;;;14.30;13.80;;;13.20;99.90;;;;;;5031820;28;20211;-62
2023/10/29 06:38:58;;;;;;;15.07;14.50;;;13.20;99.90;;;;;;5031318;28;20709;-63
2023/10/29 06:41:26;;;;;;;15.67;15.17;;;13.30;99.90;;;;;;5031148;28;20725;-64
2023/10/29 06:43:52;;;;;;;15.17;14.67;;;13.30;99.90;;;;;;5031111;28;20229;-68
2023/10/29 06:46:19;;;;;;;14.13;13.63;;;13.30;99.90;;;;;;5031139;28;20212;-64
2023/10/29 06:48:46;;;;;;;14.07;13.57;;;13.40;99.90;;;;;;5031083;28;20549;-66
2023/10/29 06:51:13;;;;;;;13.50;13.10;;;13.40;99.90;;;;;;5031032;28;20211;-67
2023/10/29 06:53:41;;;;;;;14.00;13.50;;;13.50;99.90;;;;;;5031023;28;20256;-68
2023/10/29 06:56:07;;;;;;;13.43;12.93;;;13.50;99.90;;;;;;5031209;28;20592;-64
2023/10/29 06:58:35;;;;;;;13.70;13.20;;;13.50;99.90;;;;;;5030999;28;20212;-66
2023/10/29 07:01:06;;;;;;;13.37;12.97;;;13.40;99.90;;;;;;5030833;28;20248;-66
2023/10/29 07:03:33;;;;;;;13.17;12.77;;;13.40;99.90;;;;;;5029800;28;20230;-66
2023/10/29 07:06:07;;;;;;;13.10;12.60;;;13.40;99.90;;;;;;5030893;28;20219;-64
2023/10/29 07:08:35;;;;;;;14.13;13.53;;;13.30;99.90;;;;;;5030900;28;20244;-67
2023/10/29 07:11:02;;;;;;;13.83;13.27;;;13.30;99.90;;;;;;5030899;28;20254;-65
2023/10/29 07:13:31;;;;;;;14.23;13.73;;;13.30;99.90;;;;;;5031024;28;20605;-65
2023/10/29 07:16:00;;;;;;;13.80;13.30;;;13.30;99.90;;;;;;5031576;28;20215;-66
2023/10/29 07:18:27;;;;;;;14.03;13.53;;;13.30;99.90;;;;;;5032015;28;20208;-66
2023/10/29 07:20:55;;;;;;;14.27;13.77;;;13.30;99.90;;;;;;5032532;28;20547;-66
2023/10/29 07:23:23;;;;;;;15.50;14.90;;;13.30;99.90;;;;;;5030111;28;20672;-66
2023/10/29 07:25:50;;;;;;;15.30;14.80;;;13.30;99.90;;;;;;5030383;28;20212;-65
2023/10/29 07:28:17;;;;;;;15.02;14.52;;;13.40;99.90;;;;;;5030322;28;20299;-67
2023/10/29 07:30:44;;;;;;;15.80;15.20;;;13.40;99.90;;;;;;5031344;28;20220;-66
2023/10/29 07:33:12;;;;;;;15.17;14.57;;;13.30;99.90;;;;;;5030952;28;20243;-64
2023/10/29 07:35:40;;;;;;;15.83;15.33;;;13.30;99.90;;;;;;5030818;28;20207;-65
2023/10/29 07:38:08;;;;;;;15.63;15.13;;;13.30;99.90;;;;;;5032731;28;20208;-64
2023/10/29 07:40:36;;;;;;;16.63;16.03;;;13.20;99.90;;;;;;5030609;28;20247;-63
2023/10/29 07:43:04;;;;;;;17.20;16.57;;;13.20;99.90;;;;;;5031142;28;20232;-64
2023/10/29 07:45:31;;;;;;;18.07;17.47;;;13.10;99.90;;;;;;5030605;28;20208;-64
2023/10/29 07:47:58;;;;;;;17.77;17.17;;;13.00;99.90;;;;;;5030691;28;20234;-64
2023/10/29 07:50:26;;;;;;;18.93;18.23;;;13.00;99.90;;;;;;5030393;28;20208;-64
2023/10/29 07:52:53;;;;;;;18.43;17.83;;;12.90;99.90;;;;;;5030321;28;20846;-64
2023/10/29 07:55:20;;;;;;;21.83;21.10;;;12.90;99.90;;;;;;5030230;28;20232;-64
2023/10/29 07:57:47;;;;;;;25.50;24.60;;;12.80;99.90;;;;;;5030710;28;20308;-65
2023/10/29 08:00:15;;;;;;;25.40;24.50;;;12.80;99.90;;;;;;5030421;28;20218;-65
2023/10/29 08:02:42;;;;;;;25.53;24.63;;;12.90;99.90;;;;;;5030017;28;20234;-64
2023/10/29 08:05:10;;;;;;;29.43;28.37;;;12.90;99.90;;;;;;5030485;28;20208;-63
2023/10/29 08:07:38;;;;;;;30.37;29.27;;;12.90;99.90;;;;;;5031138;28;20217;-66
2023/10/29 08:10:06;;;;;;;26.53;25.63;;;12.80;99.90;;;;;;5030695;28;20211;-65
2023/10/29 08:12:34;;;;;;;28.00;27.00;;;12.80;99.90;;;;;;5030649;28;20735;-65
2023/10/29 08:15:02;;;;;;;32.47;31.27;;;12.80;99.90;;;;;;5033775;28;20244;-65
2023/10/29 08:17:29;;;;;;;30.60;29.50;;;12.80;99.90;;;;;;5034740;28;20213;-65
2023/10/29 08:19:56;;;;;;;31.00;29.90;;;12.80;99.90;;;;;;5032954;28;20232;-65
2023/10/29 08:22:22;;;;;;;26.70;25.70;;;12.90;99.90;;;;;;5033764;28;20216;-64
2023/10/29 08:24:51;;;;;;;22.47;21.67;;;12.90;99.90;;;;;;5034160;28;20224;-68
2023/10/29 08:27:18;;;;;;;29.53;28.50;;;13.00;99.90;;;;;;5034270;28;20266;-65
2023/10/29 08:29:45;;;;;;;24.30;23.47;;;13.20;99.90;;;;;;5033921;28;20287;-64
2023/10/29 08:32:12;;;;;;;25.40;24.50;;;13.10;99.90;;;;;;5033845;28;20217;-65
2023/10/29 08:34:39;;;;;;;24.00;23.20;;;13.20;99.90;;;;;;5033756;28;20240;-65
2023/10/29 08:37:06;;;;;;;22.33;21.53;;;13.30;99.90;;;;;;5033839;28;20216;-65
2023/10/29 08:39:34;;;;;;;18.77;18.07;;;13.30;99.90;;;;;;5034144;28;20258;-65
2023/10/29 08:42:02;;;;;;;21.87;21.07;;;13.30;99.90;;;;;;5033698;28;20211;-66
2023/10/29 08:44:29;;;;;;;22.40;21.63;;;13.40;99.90;;;;;;5032028;28;20217;-65
2023/10/29 08:46:56;;;;;;;21.07;20.37;;;13.40;99.90;;;;;;5027774;28;20202;-67
2023/10/29 08:49:23;;;;;;;15.33;14.83;;;13.40;99.90;;;;;;5030920;28;20201;-66
2023/10/29 08:51:50;;;;;;;18.30;17.70;;;13.40;99.90;;;;;;5031444;28;20226;-64
2023/10/29 08:54:17;;;;;;;14.53;14.00;;;13.60;99.90;;;;;;5031103;28;20263;-65
2023/10/29 08:56:43;;;;;;;17.33;16.73;;;13.50;99.90;;;;;;5031256;28;20201;-67
2023/10/29 08:59:12;;;;;;;19.03;18.33;;;13.60;99.90;;;;;;5030192;28;20667;-66
2023/10/29 09:01:38;;;;;;;17.13;16.53;;;13.60;99.90;;;;;;5030438;28;20597;-66
2023/10/29 09:04:06;;;;;;;16.87;16.27;;;13.70;99.90;;;;;;5029366;28;20223;-66
2023/10/29 09:06:33;;;;;;;16.07;15.50;;;13.80;99.90;;;;;;5027554;28;20662;-64
2023/10/29 09:09:00;;;;;;;16.97;16.37;;;13.80;99.90;;;;;;5030064;28;20204;-64
2023/10/29 09:11:26;;;;;;;17.97;17.37;;;13.90;99.90;;;;;;5030550;28;20201;-66
2023/10/29 09:13:53;;;;;;;18.23;17.63;;;13.90;99.90;;;;;;5030855;28;20307;-64
2023/10/29 09:16:22;;;;;;;16.97;16.37;;;13.90;99.90;;;;;;5030082;28;20295;-65
2023/10/29 09:18:48;;;;;;;13.53;13.03;;;14.00;99.90;;;;;;5029770;28;20283;-65
2023/10/29 09:21:15;;;;;;;12.63;12.13;;;14.00;99.90;;;;;;5030190;28;20200;-67
2023/10/29 09:23:43;;;;;;;14.23;13.73;;;14.10;99.90;;;;;;5031371;28;20247;-64
2023/10/29 09:26:10;;;;;;;13.60;13.17;;;14.20;99.90;;;;;;5030312;28;20296;-65
2023/10/29 09:28:37;;;;;;;13.90;13.40;;;14.30;99.90;;;;;;5029865;28;20721;-64
2023/10/29 09:31:04;;;;;;;15.30;14.70;;;14.30;99.90;;;;;;5029583;28;20205;-66
2023/10/29 09:33:32;;;;;;;12.47;12.07;;;14.30;99.90;;;;;;5030877;28;20220;-65
2023/10/29 09:36:00;;;;;;;12.73;12.23;;;14.30;99.90;;;;;;5026760;28;20386;-64
2023/10/29 09:38:27;;;;;;;12.80;12.40;;;14.30;99.90;;;;;;5026608;28;20625;-65
2023/10/29 09:40:53;;;;;;;13.63;13.13;;;14.40;99.90;;;;;;5024550;28;20200;-66
2023/10/29 09:43:26;;;;;;;12.90;12.50;;;14.40;99.90;;;;;;5021473;28;20228;-64
2023/10/29 09:45:54;;;;;;;11.80;11.40;;;14.40;99.90;;;;;;5024534;28;20551;-64
2023/10/29 09:48:23;;;;;;;12.20;11.80;;;14.50;99.90;;;;;;5023782;28;20588;-65
2023/10/29 09:50:51;;;;;;;11.30;10.90;;;14.50;99.90;;;;;;5025757;28;20554;-65
2023/10/29 09:53:19;;;;;;;11.93;11.53;;;14.60;99.90;;;;;;5028054;28;20316;-65
2023/10/29 09:55:48;;;;;;;12.17;11.77;;;14.70;99.90;;;;;;5027430;28;20224;-65
2023/10/29 09:58:15;;;;;;;12.50;12.10;;;14.80;99.90;;;;;;5025624;28;20207;-66
2023/10/29 10:00:42;;;;;;;12.67;12.27;;;14.80;99.90;;;;;;5021809;28;20255;-65
2023/10/29 10:03:08;;;;;;;11.77;11.37;;;14.90;99.90;;;;;;5020999;28;20255;-66
2023/10/29 10:05:36;;;;;;;12.67;12.27;;;14.90;99.90;;;;;;5021793;28;20197;-65
2023/10/29 10:08:05;;;;;;;12.83;12.43;;;14.90;99.90;;;;;;5028799;28;20200;-65
2023/10/29 10:10:42;;;;;;;12.40;12.00;;;15.00;99.90;;;;;;5031089;28;20205;-65
2023/10/29 10:13:10;;;;;;;12.43;12.03;;;15.10;99.90;;;;;;5027066;28;20240;-66
2023/10/29 10:15:37;;;;;;;12.50;12.10;;;15.00;99.90;;;;;;5033368;28;20725;-63
2023/10/29 10:18:06;;;;;;;12.40;12.00;;;15.00;99.90;;;;;;5030663;28;20200;-67
2023/10/29 10:20:33;;;;;;;12.67;12.27;;;15.10;99.90;;;;;;5031237;28;20214;-65
2023/10/29 10:23:01;;;;;;;11.83;11.33;;;15.10;99.90;;;;;;5029990;28;20235;-65
2023/10/29 10:25:31;;;;;;;12.70;12.20;;;15.10;99.90;;;;;;5031316;28;20278;-64
2023/10/29 10:28:00;;;;;;;13.27;12.83;;;15.20;99.90;;;;;;5031642;28;20288;-65
2023/10/29 10:30:28;;;;;;;13.13;12.73;;;15.20;99.90;;;;;;5033368;28;20210;-66
2023/10/29 10:33:07;;;;;;;13.03;12.60;;;15.30;99.90;;;;;;5032782;28;20237;-66
2023/10/29 10:35:39;;;;;;;13.90;13.40;;;15.20;99.90;;;;;;5031652;28;20236;-65
2023/10/29 10:38:06;;;;;;;13.27;12.87;;;15.30;99.90;;;;;;5029025;28;20200;-65
2023/10/29 10:40:34;;;;;;;13.30;12.87;;;15.50;99.90;;;;;;5030711;28;20212;-67
2023/10/29 10:43:01;;;;;;;14.77;14.27;;;15.40;99.90;;;;;;5030100;28;20231;-66
2023/10/29 10:45:30;;;;;;;13.77;13.27;;;15.50;99.90;;;;;;5030300;28;20212;-66
2023/10/29 10:47:57;;;;;;;14.57;14.07;;;15.70;99.90;;;;;;5028978;28;20582;-67
2023/10/29 10:50:26;;;;;;;13.73;13.23;;;15.70;99.90;;;;;;5029286;28;20624;-66
2023/10/29 10:52:53;;;;;;;12.93;12.53;;;15.80;99.90;;;;;;5027583;28;20815;-64
2023/10/29 10:55:20;;;;;;;12.47;12.07;;;15.90;99.90;;;;;;5029198;28;20228;-64
2023/10/29 10:57:50;;;;;;;13.07;12.63;;;16.00;99.90;;;;;;5026827;28;20655;-65
2023/10/29 11:00:18;;;;;;;12.97;12.57;;;16.00;99.90;;;;;;5025998;28;20216;-67
2023/10/29 11:02:46;;;;;;;13.43;13.00;;;16.10;99.90;;;;;;5026452;28;20205;-66
2023/10/29 11:05:15;;;;;;;13.27;12.87;;;16.10;99.90;;;;;;5025546;28;20205;-65
2023/10/29 11:07:44;;;;;;;12.70;12.30;;;16.20;99.90;;;;;;5026856;28;20678;-65
2023/10/29 11:10:14;;;;;;;13.30;12.80;;;16.20;99.90;;;;;;5028837;28;20197;-64
2023/10/29 11:12:42;;;;;;;13.40;13.00;;;16.40;99.90;;;;;;5029615;28;20201;-65
2023/10/29 11:15:20;;;;;;;12.57;12.17;;;16.30;99.90;;;;;;5029839;28;20300;-64
2023/10/29 11:17:58;;;;;;;13.10;12.70;;;16.40;99.90;;;;;;5028401;28;20206;-65
2023/10/29 11:20:52;;;;;;;13.30;12.80;;;16.60;99.90;;;;;;5029157;28;20271;-65
2023/10/29 11:23:24;;;;;;;12.87;12.47;;;16.70;99.90;;;;;;5029661;28;20235;-66
2023/10/29 11:25:51;;;;;;;13.20;12.70;;;16.70;99.90;;;;;;5029535;28;20205;-66
2023/10/29 11:28:44;;;;;;;12.10;11.70;;;16.70;99.90;;;;;;5029931;28;20236;-65
2023/10/29 11:31:17;;;;;;;13.27;12.77;;;16.80;99.90;;;;;;5025597;28;20208;-65
2023/10/29 11:33:45;;;;;;;13.47;13.00;;;16.80;99.90;;;;;;5024066;28;20227;-64
2023/10/29 11:36:32;;;;;;;12.83;12.43;;;16.70;99.90;;;;;;5024090;28;20220;-64
2023/10/29 11:39:29;;;;;;;13.63;13.13;;;16.70;99.90;;;;;;5030805;28;20204;-63
2023/10/29 11:41:57;;;;;;;14.90;14.37;;;16.70;99.90;;;;;;5029787;28;20658;-65
2023/10/29 11:44:24;;;;;;;13.53;13.03;;;16.70;99.90;;;;;;5029457;28;20226;-64
2023/10/29 11:47:07;;;;;;;12.90;12.50;;;16.70;99.90;;;;;;5030602;28;20269;-63
2023/10/29 11:50:13;;;;;;;14.27;13.77;;;16.70;99.90;;;;;;5030979;28;20204;-64
2023/10/29 11:52:45;;;;;;;14.37;13.87;;;16.80;99.90;;;;;;5032402;28;20294;-65
2023/10/29 11:55:12;;;;;;;12.90;12.50;;;16.90;99.90;;;;;;5030949;28;20307;-65
2023/10/29 11:57:44;;;;;;;12.93;12.53;;;16.90;99.90;;;;;;5030007;28;20279;-65
2023/10/29 12:00:13;;;;;;;12.37;11.97;;;16.90;99.90;;;;;;5033174;28;20204;-66
2023/10/29 12:02:44;;;;;;;11.87;11.47;;;16.90;99.90;;;;;;5028970;28;20259;-65
2023/10/29 12:05:12;;;;;;;13.53;13.03;;;17.00;99.90;;;;;;5030929;28;20254;-66
2023/10/29 12:07:38;;;;;;;12.87;12.47;;;17.10;99.90;;;;;;5029677;28;20204;-66
2023/10/29 12:10:07;;;;;;;13.30;12.90;;;17.20;99.90;;;;;;5033476;28;20219;-65
2023/10/29 12:12:34;;;;;;;13.10;12.70;;;17.40;99.90;;;;;;5030143;28;20232;-66
2023/10/29 12:15:01;;;;;;;13.37;12.97;;;17.60;99.90;;;;;;5038049;28;20562;-66
2023/10/29 12:17:28;;;;;;;12.60;12.20;;;17.70;99.90;;;;;;5035835;28;20243;-65
2023/10/29 12:19:56;;;;;;;12.75;12.35;;;17.70;99.90;;;;;;5036939;28;20248;-65
2023/10/29 12:22:25;;;;;;;13.07;12.57;;;17.70;99.90;;;;;;5038862;28;20208;-64
2023/10/29 12:24:55;;;;;;;13.17;12.77;;;17.80;99.90;;;;;;5038082;28;20323;-64
2023/10/29 12:27:22;;;;;;;13.00;12.50;;;17.70;99.90;;;;;;5034385;28;20369;-63
2023/10/29 12:29:49;;;;;;;14.17;13.67;;;17.70;99.90;;;;;;5033524;28;20254;-65
2023/10/29 12:32:17;;;;;;;14.27;13.77;;;17.70;99.90;;;;;;5032314;28;20688;-65